createdAt,value
2023-04-15T00:01:00.026Z,83.28
2023-04-15T00:03:30.245Z,83.68
2023-04-15T00:06:02.714Z,83.93
2023-04-15T00:08:31.716Z,84.27
2023-04-15T00:11:06.104Z,84.65
2023-04-15T00:13:41.112Z,85.04
2023-04-15T00:16:09.592Z,85.30
2023-04-15T00:18:38.381Z,85.34
2023-04-15T00:21:06.673Z,85.12
2023-04-15T00:23:37.126Z,84.89
2023-04-15T00:26:05.714Z,85.10
2023-04-15T00:28:37.653Z,85.13
2023-04-15T00:31:06.134Z,85.06
2023-04-15T00:33:36.933Z,85.18
2023-04-15T00:36:07.317Z,85.23
2023-04-15T00:38:38.459Z,85.60
2023-04-15T00:41:06.853Z,85.93
2023-04-15T00:43:36.751Z,86.09
2023-04-15T00:46:06.805Z,86.29
2023-04-15T00:48:35.960Z,86.19
2023-04-15T00:51:05.084Z,86.57
2023-04-15T00:53:33.240Z,86.26
2023-04-15T00:56:03.972Z,86.39
2023-04-15T00:58:33.095Z,86.53
2023-04-15T01:01:02.294Z,86.59
2023-04-15T01:03:34.236Z,86.77
2023-04-15T01:06:03.999Z,86.74
2023-04-15T01:08:32.750Z,86.24
2023-04-15T01:11:03.788Z,86.34
2023-04-15T01:13:33.818Z,86.91
2023-04-15T01:16:03.275Z,87.13
2023-04-15T01:18:32.310Z,87.40
2023-04-15T01:21:02.740Z,87.40
2023-04-15T01:23:30.910Z,87.02
2023-04-15T01:26:01.099Z,87.13
2023-04-15T01:28:34.257Z,87.28
2023-04-15T01:31:08.393Z,86.94
2023-04-15T01:33:38.904Z,87.21
2023-04-15T01:36:10.199Z,87.32
2023-04-15T01:38:41.489Z,87.58
2023-04-15T01:41:09.767Z,87.64
2023-04-15T01:43:38.251Z,87.41
2023-04-15T01:46:07.447Z,87.10
2023-04-15T01:48:36.144Z,86.73
2023-04-15T01:51:08.571Z,86.69
2023-04-15T01:53:38.268Z,87.32
2023-04-15T01:56:07.521Z,87.73
2023-04-15T01:58:36.310Z,87.31
2023-04-15T02:01:05.611Z,87.38
2023-04-15T02:03:34.804Z,87.29
2023-04-15T02:06:05.037Z,87.72
2023-04-15T02:08:34.955Z,87.14
2023-04-15T02:11:03.638Z,86.22
2023-04-15T02:13:33.347Z,85.77
2023-04-15T02:16:03.560Z,85.86
2023-04-15T02:18:32.468Z,86.22
2023-04-15T02:21:00.838Z,86.58
2023-04-15T02:23:29.427Z,86.85
2023-04-15T02:25:58.623Z,86.60
2023-04-15T02:28:27.820Z,86.69
2023-04-15T02:30:57.939Z,86.63
2023-04-15T02:33:26.730Z,86.81
2023-04-15T02:35:55.519Z,87.10
2023-04-15T02:38:24.310Z,86.65
2023-04-15T02:40:57.706Z,86.66
2023-04-15T02:43:26.698Z,86.89
2023-04-15T02:45:55.169Z,87.40
2023-04-15T02:48:27.453Z,87.32
2023-04-15T02:51:11.719Z,87.10
2023-04-15T02:53:41.799Z,87.14
2023-04-15T02:56:17.387Z,87.47
2023-04-15T02:58:46.358Z,87.51
2023-04-15T03:01:15.092Z,87.64
2023-04-15T03:03:43.495Z,87.74
2023-04-15T03:06:12.023Z,87.45
2023-04-15T03:08:41.923Z,87.32
2023-04-15T03:11:11.020Z,87.36
2023-04-15T03:13:43.699Z,87.28
2023-04-15T03:16:22.561Z,87.06
2023-04-15T03:18:51.414Z,87.23
2023-04-15T03:21:21.439Z,87.31
2023-04-15T03:23:50.226Z,87.15
2023-04-15T03:26:37.952Z,87.11
2023-04-15T03:29:17.905Z,87.11
2023-04-15T03:31:49.210Z,87.08
2023-04-15T03:34:18.152Z,87.32
2023-04-15T03:36:47.138Z,87.62
2023-04-15T03:39:15.722Z,87.45
2023-04-15T03:41:44.103Z,87.14
2023-04-15T03:44:16.782Z,86.71
2023-04-15T03:46:44.992Z,86.97
2023-04-15T03:49:14.370Z,86.99
2023-04-15T03:51:42.809Z,87.09
2023-04-15T03:54:12.158Z,87.33
2023-04-15T03:56:41.001Z,87.83
2023-04-15T03:59:10.239Z,87.59
2023-04-15T04:01:39.044Z,87.65
2023-04-15T04:04:07.814Z,88.27
2023-04-15T04:06:36.603Z,88.90
2023-04-15T04:09:08.051Z,88.30
2023-04-15T04:11:37.862Z,88.02
2023-04-15T04:14:08.903Z,88.11
2023-04-15T04:16:39.450Z,88.41
2023-04-15T04:19:07.917Z,89.01
2023-04-15T04:21:39.991Z,89.09
2023-04-15T04:24:08.695Z,89.66
2023-04-15T04:26:37.470Z,89.83
2023-04-15T04:29:12.490Z,89.97
2023-04-15T04:31:41.107Z,90.19
2023-04-15T04:34:09.454Z,90.21
2023-04-15T04:36:37.735Z,90.38
2023-04-15T04:39:06.325Z,90.00
2023-04-15T04:41:34.895Z,89.96
2023-04-15T04:44:03.788Z,90.00
2023-04-15T04:46:33.095Z,90.04
2023-04-15T04:49:02.104Z,90.27
2023-04-15T04:51:31.381Z,89.45
2023-04-15T04:54:01.787Z,89.51
2023-04-15T04:56:32.139Z,88.87
2023-04-15T04:59:01.156Z,89.04
2023-04-15T05:01:30.286Z,88.71
2023-04-15T05:03:59.128Z,88.88
2023-04-15T05:06:28.100Z,89.07
2023-04-15T05:08:57.618Z,89.17
2023-04-15T05:11:26.475Z,89.03
2023-04-15T05:13:55.062Z,89.06
2023-04-15T05:16:23.885Z,88.86
2023-04-15T05:18:52.640Z,88.73
2023-04-15T05:21:22.150Z,88.54
2023-04-15T05:23:50.630Z,88.68
2023-04-15T05:26:24.442Z,88.78
2023-04-15T05:28:54.096Z,88.46
2023-04-15T05:31:22.493Z,88.19
2023-04-15T05:33:51.718Z,88.13
2023-04-15T05:36:19.995Z,88.14
2023-04-15T05:38:48.381Z,87.98
2023-04-15T05:41:19.552Z,87.64
2023-04-15T05:43:49.029Z,87.56
2023-04-15T05:46:18.950Z,87.66
2023-04-15T05:48:47.423Z,87.60
2023-04-15T05:51:16.391Z,87.02
2023-04-15T05:53:46.686Z,86.58
2023-04-15T05:56:14.965Z,86.68
2023-04-15T05:58:43.444Z,86.50
2023-04-15T06:01:12.036Z,86.19
2023-04-15T06:03:40.727Z,86.28
2023-04-15T06:06:10.331Z,86.53
2023-04-15T06:08:38.909Z,86.94
2023-04-15T06:11:07.620Z,86.70
2023-04-15T06:13:36.396Z,86.75
2023-04-15T06:16:05.442Z,86.65
2023-04-15T06:18:34.070Z,86.95
2023-04-15T06:21:02.347Z,86.37
2023-04-15T06:23:31.340Z,85.84
2023-04-15T06:26:04.036Z,85.98
2023-04-15T06:28:32.536Z,86.32
2023-04-15T06:31:01.720Z,86.36
2023-04-15T06:33:30.210Z,85.95
2023-04-15T06:35:58.988Z,85.04
2023-04-15T06:38:27.278Z,85.26
2023-04-15T06:40:55.751Z,85.46
2023-04-15T06:43:24.554Z,85.18
2023-04-15T06:45:53.171Z,84.80
2023-04-15T06:48:23.294Z,84.94
2023-04-15T06:50:51.829Z,84.80
2023-04-15T06:53:20.110Z,84.44
2023-04-15T06:55:49.334Z,84.42
2023-04-15T06:58:17.604Z,84.03
2023-04-15T07:00:49.795Z,83.59
2023-04-15T07:03:20.445Z,83.73
2023-04-15T07:05:49.302Z,83.82
2023-04-15T07:08:24.843Z,83.68
2023-04-15T07:10:55.187Z,83.52
2023-04-15T07:14:05.340Z,83.34
2023-04-15T07:16:34.270Z,83.30
2023-04-15T07:19:03.106Z,83.21
2023-04-15T07:21:32.705Z,82.31
2023-04-15T07:24:01.189Z,82.21
2023-04-15T07:26:35.810Z,81.89
2023-04-15T07:29:04.364Z,81.78
2023-04-15T07:31:32.818Z,81.48
2023-04-15T07:34:01.158Z,81.74
2023-04-15T07:36:31.882Z,82.32
2023-04-15T07:39:02.341Z,82.63
2023-04-15T07:41:32.022Z,83.27
2023-04-15T07:44:03.086Z,83.65
2023-04-15T07:46:31.837Z,83.36
2023-04-15T07:49:04.220Z,83.94
2023-04-15T07:51:32.962Z,83.88
2023-04-15T07:54:04.514Z,83.51
2023-04-15T07:56:33.377Z,83.10
2023-04-15T07:59:10.698Z,83.70
2023-04-15T08:01:39.861Z,84.19
2023-04-15T08:04:08.477Z,83.89
2023-04-15T08:06:40.255Z,84.14
2023-04-15T08:09:10.225Z,84.12
2023-04-15T08:11:38.414Z,83.78
2023-04-15T08:14:10.254Z,83.70
2023-04-15T08:16:41.767Z,84.16
2023-04-15T08:19:10.203Z,84.46
2023-04-15T08:21:39.305Z,84.79
2023-04-15T08:24:08.293Z,84.61
2023-04-15T08:26:44.140Z,84.36
2023-04-15T08:29:13.444Z,84.30
2023-04-15T08:31:42.215Z,84.49
2023-04-15T08:34:15.333Z,84.81
2023-04-15T08:36:49.332Z,85.91
2023-04-15T08:39:18.530Z,86.30
2023-04-15T08:41:48.275Z,86.22
2023-04-15T08:44:19.077Z,85.10
2023-04-15T08:46:47.814Z,84.62
2023-04-15T08:49:17.066Z,83.81
2023-04-15T08:51:51.081Z,83.66
2023-04-15T08:54:23.658Z,83.14
2023-04-15T08:56:54.091Z,83.46
2023-04-15T08:59:22.882Z,84.58
2023-04-15T09:01:51.995Z,85.11
2023-04-15T09:04:20.349Z,84.60
2023-04-15T09:06:48.907Z,84.36
2023-04-15T09:09:17.479Z,84.11
2023-04-15T09:11:47.650Z,83.65
2023-04-15T09:14:15.924Z,82.38
2023-04-15T09:17:04.408Z,82.88
2023-04-15T09:19:36.649Z,81.97
2023-04-15T09:22:04.961Z,82.46
2023-04-15T09:24:39.113Z,82.00
2023-04-15T09:27:07.572Z,82.15
2023-04-15T09:29:37.374Z,82.28
2023-04-15T09:32:13.407Z,81.28
2023-04-15T09:34:43.105Z,80.83
2023-04-15T09:37:24.582Z,80.47
2023-04-15T09:39:57.173Z,79.81
2023-04-15T09:42:27.055Z,79.58
2023-04-15T09:44:55.601Z,79.86
2023-04-15T09:47:28.913Z,80.48
2023-04-15T09:49:58.079Z,80.10
2023-04-15T09:52:27.588Z,80.29
2023-04-15T09:54:58.324Z,80.16
2023-04-15T09:57:34.480Z,79.59
2023-04-15T10:00:07.093Z,79.39
2023-04-15T10:02:36.958Z,79.65
2023-04-15T10:05:15.117Z,79.85
2023-04-15T10:07:48.684Z,79.95
2023-04-15T10:10:17.168Z,79.85
2023-04-15T10:12:45.777Z,80.52
2023-04-15T10:15:16.819Z,80.56
2023-04-15T10:17:45.623Z,79.82
2023-04-15T10:20:14.945Z,79.73
2023-04-15T10:22:43.669Z,80.11
2023-04-15T10:25:14.301Z,79.81
2023-04-15T10:27:43.290Z,79.75
2023-04-15T10:30:11.994Z,79.41
2023-04-15T10:32:41.313Z,79.60
2023-04-15T10:35:09.874Z,79.64
2023-04-15T10:37:39.483Z,79.51
2023-04-15T10:40:31.821Z,79.72
2023-04-15T10:43:01.827Z,79.56
2023-04-15T10:45:37.404Z,79.40
2023-04-15T10:48:07.946Z,78.92
2023-04-15T10:50:37.832Z,78.22
2023-04-15T10:53:06.328Z,78.07
2023-04-15T10:55:34.888Z,77.86
2023-04-15T10:58:03.477Z,78.13
2023-04-15T11:00:33.019Z,78.23
2023-04-15T11:03:09.996Z,78.07
2023-04-15T11:05:41.787Z,78.15
2023-04-15T11:08:10.940Z,78.69
2023-04-15T11:10:39.197Z,78.78
2023-04-15T11:13:13.610Z,78.53
2023-04-15T11:15:45.471Z,78.16
2023-04-15T11:18:23.896Z,78.46
2023-04-15T11:21:03.735Z,79.12
2023-04-15T11:23:38.359Z,79.48
2023-04-15T11:26:15.135Z,78.54
2023-04-15T11:28:45.336Z,78.60
2023-04-15T11:31:20.467Z,78.72
2023-04-15T11:33:59.889Z,78.63
2023-04-15T11:36:29.796Z,78.87
2023-04-15T11:38:59.608Z,79.25
2023-04-15T11:41:28.762Z,79.35
2023-04-15T11:43:57.357Z,79.22
2023-04-15T11:46:32.569Z,79.51
2023-04-15T11:49:01.900Z,79.96
2023-04-15T11:51:34.929Z,80.00
2023-04-15T11:54:04.368Z,79.02
2023-04-15T11:56:33.276Z,79.44
2023-04-15T11:59:02.519Z,79.60
2023-04-15T12:01:40.014Z,79.16
2023-04-15T12:04:13.196Z,79.05
2023-04-15T12:06:41.871Z,79.62
2023-04-15T12:09:12.443Z,79.86
2023-04-15T12:11:45.101Z,80.89
2023-04-15T12:14:16.055Z,80.43
2023-04-15T12:16:51.767Z,80.24
2023-04-15T12:19:26.094Z,79.69
2023-04-15T12:22:00.482Z,80.16
2023-04-15T12:24:31.779Z,80.35
2023-04-15T12:27:07.357Z,80.70
2023-04-15T12:29:37.168Z,80.70
2023-04-15T12:32:21.211Z,80.24
2023-04-15T12:34:53.322Z,80.13
2023-04-15T12:37:22.068Z,79.97
2023-04-15T12:39:50.295Z,79.78
2023-04-15T12:42:19.186Z,79.74
2023-04-15T12:44:48.353Z,79.68
2023-04-15T12:47:16.606Z,79.95
2023-04-15T12:49:45.871Z,79.95
2023-04-15T12:52:14.168Z,79.81
2023-04-15T12:54:42.656Z,79.92
2023-04-15T12:57:10.846Z,80.44
2023-04-15T12:59:39.185Z,81.93
2023-04-15T13:02:08.437Z,82.17
2023-04-15T13:04:37.036Z,82.37
2023-04-15T13:07:06.007Z,82.77
2023-04-15T13:09:34.272Z,83.02
2023-04-15T13:12:03.283Z,83.12
2023-04-15T13:14:31.938Z,82.87
2023-04-15T13:17:00.290Z,82.91
2023-04-15T13:19:28.699Z,82.85
2023-04-15T13:21:57.193Z,83.16
2023-04-15T13:24:26.036Z,83.16
2023-04-15T13:26:55.158Z,82.86
2023-04-15T13:29:25.713Z,83.00
2023-04-15T13:31:54.219Z,83.29
2023-04-15T13:34:22.561Z,82.65
2023-04-15T13:36:53.201Z,82.58
2023-04-15T13:39:21.830Z,82.55
2023-04-15T13:41:50.066Z,82.97
2023-04-15T13:44:19.485Z,83.08
2023-04-15T13:46:48.594Z,83.20
2023-04-15T13:49:16.795Z,82.91
2023-04-15T13:51:45.114Z,83.06
2023-04-15T13:54:13.519Z,82.94
2023-04-15T13:56:41.872Z,82.94
2023-04-15T13:59:10.212Z,82.84
2023-04-15T14:01:39.186Z,82.47
2023-04-15T14:04:08.059Z,82.34
2023-04-15T14:06:37.131Z,82.30
2023-04-15T14:09:05.832Z,82.38
2023-04-15T14:11:36.944Z,81.81
2023-04-15T14:14:06.040Z,81.75
2023-04-15T14:16:35.879Z,81.80
2023-04-15T14:19:04.664Z,81.41
2023-04-15T14:21:33.951Z,81.61
2023-04-15T14:24:02.398Z,82.05
2023-04-15T14:26:31.180Z,82.36
2023-04-15T14:28:59.572Z,82.26
2023-04-15T14:31:28.248Z,82.62
2023-04-15T14:33:56.723Z,82.64
2023-04-15T14:36:25.115Z,82.20
2023-04-15T14:38:53.576Z,81.38
2023-04-15T14:41:22.687Z,81.48
2023-04-15T14:43:51.477Z,82.14
2023-04-15T14:46:19.764Z,82.32
2023-04-15T14:48:48.175Z,81.81
2023-04-15T14:51:16.994Z,81.74
2023-04-15T14:53:45.967Z,82.03
2023-04-15T14:56:14.569Z,82.14
2023-04-15T14:58:42.849Z,82.22
2023-04-15T15:01:11.878Z,82.07
2023-04-15T15:03:40.430Z,81.74
2023-04-15T15:06:09.276Z,81.82
2023-04-15T15:08:38.731Z,82.00
2023-04-15T15:11:07.172Z,81.98
2023-04-15T15:13:35.614Z,81.44
2023-04-15T15:16:04.731Z,81.83
2023-04-15T15:18:33.475Z,82.48
2023-04-15T15:21:01.638Z,83.10
2023-04-15T15:23:30.241Z,83.42
2023-04-15T15:25:58.928Z,83.96
2023-04-15T15:28:27.386Z,84.32
2023-04-15T15:30:56.089Z,84.61
2023-04-15T15:33:25.126Z,84.99
2023-04-15T15:35:53.509Z,84.94
2023-04-15T15:38:22.963Z,85.14
2023-04-15T15:40:51.306Z,85.26
2023-04-15T15:43:20.051Z,85.27
2023-04-15T15:45:51.883Z,85.14
2023-04-15T15:48:20.796Z,84.99
2023-04-15T15:50:49.086Z,85.27
2023-04-15T15:53:21.357Z,85.84
2023-04-15T15:55:49.972Z,86.21
2023-04-15T15:58:19.578Z,86.27
2023-04-15T16:00:48.088Z,86.54
2023-04-15T16:03:17.029Z,86.82
2023-04-15T16:05:46.343Z,87.15
2023-04-15T16:08:14.886Z,87.13
2023-04-15T16:10:46.058Z,87.19
2023-04-15T16:13:14.740Z,86.99
2023-04-15T16:15:43.313Z,87.20
2023-04-15T16:18:11.515Z,87.57
2023-04-15T16:20:40.508Z,87.71
2023-04-15T16:23:16.378Z,87.87
2023-04-15T16:25:44.836Z,87.96
2023-04-15T16:28:25.773Z,88.15
2023-04-15T16:30:56.313Z,88.30
2023-04-15T16:33:25.008Z,88.32
2023-04-15T16:35:53.279Z,88.24
2023-04-15T16:38:22.277Z,88.11
2023-04-15T16:40:51.777Z,88.07
2023-04-15T16:43:20.465Z,88.33
2023-04-15T16:45:51.725Z,88.77
2023-04-15T16:48:20.603Z,88.68
2023-04-15T16:50:49.459Z,88.72
2023-04-15T16:53:18.498Z,88.89
2023-04-15T16:55:46.980Z,89.20
2023-04-15T16:58:15.655Z,89.44
2023-04-15T17:00:44.449Z,89.77
2023-04-15T17:03:12.842Z,89.97
2023-04-15T17:05:42.566Z,90.17
2023-04-15T17:08:11.227Z,90.36
2023-04-15T17:10:42.465Z,90.63
2023-04-15T17:13:10.856Z,90.68
2023-04-15T17:15:39.619Z,91.02
2023-04-15T17:18:12.575Z,91.54
2023-04-15T17:20:41.161Z,92.07
2023-04-15T17:23:09.637Z,92.39
2023-04-15T17:25:38.021Z,92.58
2023-04-15T17:28:06.808Z,92.97
2023-04-15T17:30:35.207Z,93.19
2023-04-15T17:33:04.112Z,93.53
2023-04-15T17:35:52.429Z,93.99
2023-04-15T17:38:20.810Z,94.26
2023-04-15T17:40:49.260Z,94.36
2023-04-15T17:43:17.883Z,94.77
2023-04-15T17:45:47.504Z,94.88
2023-04-15T17:48:16.275Z,95.25
2023-04-15T17:50:44.894Z,95.43
2023-04-15T17:53:13.467Z,95.93
2023-04-15T17:55:41.748Z,96.14
2023-04-15T17:58:11.185Z,96.89
2023-04-15T18:00:39.445Z,97.12
2023-04-15T18:03:08.306Z,97.28
2023-04-15T18:05:36.821Z,97.78
2023-04-15T18:08:06.634Z,97.83
2023-04-15T18:10:36.662Z,98.31
2023-04-15T18:13:05.030Z,98.31
2023-04-15T18:15:33.529Z,98.61
2023-04-15T18:18:02.808Z,98.77
2023-04-15T18:20:33.560Z,99.21
2023-04-15T18:23:02.411Z,99.44
2023-04-15T18:25:34.779Z,99.79
2023-04-15T18:28:04.185Z,99.95
2023-04-15T18:30:32.763Z,100.00
2023-04-15T18:33:01.089Z,100.00
2023-04-15T18:35:32.100Z,100.00
2023-04-15T18:38:01.176Z,100.00
2023-04-15T18:40:29.872Z,100.00
2023-04-15T18:42:58.144Z,100.00
2023-04-15T18:45:26.885Z,100.00
2023-04-15T18:47:55.770Z,100.00
2023-04-15T18:50:24.315Z,100.00
2023-04-15T18:52:53.099Z,100.00
2023-04-15T18:55:21.581Z,100.00
2023-04-15T18:57:49.750Z,100.00
2023-04-15T19:00:18.641Z,100.00
2023-04-15T19:02:47.573Z,100.00
2023-04-15T19:05:16.223Z,100.00
2023-04-15T19:07:46.338Z,100.00
2023-04-15T19:10:15.177Z,100.00
2023-04-15T19:12:44.224Z,100.00
2023-04-15T19:15:12.702Z,100.00
2023-04-15T19:17:41.447Z,100.00
2023-04-15T19:20:12.336Z,100.00
2023-04-15T19:22:41.021Z,100.00
2023-04-15T19:25:09.689Z,100.00
2023-04-15T19:27:38.608Z,100.00
2023-04-15T19:32:56.416Z,100.00
2023-04-15T19:35:25.033Z,100.00
2023-04-15T19:37:53.205Z,100.00
2023-04-15T19:40:21.458Z,100.00
2023-04-15T19:42:49.890Z,100.00
2023-04-15T19:45:18.281Z,100.00
2023-04-15T19:47:47.200Z,100.00
2023-04-15T19:50:16.908Z,100.00
2023-04-15T19:52:45.370Z,100.00
2023-04-15T19:55:14.053Z,100.00
2023-04-15T19:57:42.733Z,100.00
2023-04-15T20:00:11.995Z,100.00
2023-04-15T20:02:40.957Z,100.00
2023-04-15T20:05:12.936Z,100.00
2023-04-15T20:07:42.856Z,100.00
2023-04-15T20:10:13.268Z,100.00
2023-04-15T20:12:51.497Z,100.00
2023-04-15T20:15:23.007Z,100.00
2023-04-15T20:17:53.782Z,100.00
2023-04-15T20:20:22.681Z,100.00
2023-04-15T20:22:53.060Z,100.00
2023-04-15T20:25:21.656Z,100.00
2023-04-15T20:27:50.835Z,100.00
2023-04-15T20:30:19.824Z,100.00
2023-04-15T20:32:48.916Z,100.00
2023-04-15T20:35:17.301Z,100.00
2023-04-15T20:37:46.192Z,100.00
2023-04-15T20:40:14.593Z,100.00
2023-04-15T20:42:44.789Z,100.00
2023-04-15T20:45:13.277Z,100.00
2023-04-15T20:47:41.922Z,100.00
2023-04-15T20:50:11.570Z,100.00
2023-04-15T20:52:40.174Z,100.00
2023-04-15T20:55:09.181Z,100.00
2023-04-15T20:57:37.532Z,100.00
2023-04-15T21:00:06.792Z,100.00
2023-04-15T21:02:35.338Z,100.00
2023-04-15T21:05:03.792Z,100.00
2023-04-15T21:07:32.945Z,100.00
2023-04-15T21:10:01.373Z,100.00
2023-04-15T21:12:29.869Z,100.00
2023-04-15T21:14:58.030Z,100.00
2023-04-15T21:17:26.520Z,100.00
2023-04-15T21:19:55.093Z,100.00
2023-04-15T21:22:23.884Z,100.00
2023-04-15T21:24:52.469Z,100.00
2023-04-15T21:27:21.052Z,100.00
2023-04-15T21:29:49.235Z,100.00
2023-04-15T21:32:17.451Z,100.00
2023-04-15T21:34:45.889Z,100.00
2023-04-15T21:37:14.261Z,100.00
2023-04-15T21:39:42.738Z,100.00
2023-04-15T21:42:11.680Z,100.00
2023-04-15T21:44:40.527Z,100.00
2023-04-15T21:47:08.853Z,100.00
2023-04-15T21:49:37.691Z,100.00
2023-04-15T21:52:06.580Z,100.00
2023-04-15T21:54:38.293Z,100.00
2023-04-15T21:57:06.726Z,100.00
2023-04-15T21:59:34.994Z,100.00
2023-04-15T22:02:03.286Z,100.00
2023-04-15T22:04:31.700Z,100.00
2023-04-15T22:07:02.693Z,100.00
2023-04-15T22:09:31.294Z,100.00
2023-04-15T22:11:59.962Z,100.00
2023-04-15T22:14:29.397Z,100.00
2023-04-15T22:16:57.866Z,100.00
2023-04-15T22:19:26.432Z,100.00
2023-04-15T22:21:54.808Z,100.00
2023-04-15T22:24:36.730Z,100.00
2023-04-15T22:27:09.384Z,100.00
2023-04-15T22:29:37.569Z,100.00
2023-04-15T22:32:07.132Z,100.00
2023-04-15T22:34:37.908Z,100.00
2023-04-15T22:37:06.586Z,100.00
2023-04-15T22:39:34.869Z,100.00
2023-04-15T22:42:03.654Z,100.00
2023-04-15T22:44:32.034Z,100.00
2023-04-15T22:47:00.822Z,100.00
2023-04-15T22:49:29.097Z,100.00
2023-04-15T22:51:57.476Z,100.00
2023-04-15T22:54:25.857Z,100.00
2023-04-15T22:56:54.030Z,100.00
2023-04-15T22:59:22.616Z,100.00
2023-04-15T23:01:51.807Z,100.00
2023-04-15T23:04:22.969Z,100.00
2023-04-15T23:06:57.179Z,100.00
2023-04-15T23:09:28.524Z,100.00
2023-04-15T23:11:57.056Z,100.00
2023-04-15T23:14:28.291Z,100.00
2023-04-15T23:16:57.367Z,100.00
2023-04-15T23:19:25.832Z,100.00
2023-04-15T23:21:54.225Z,100.00
2023-04-15T23:24:23.098Z,100.00
2023-04-15T23:26:53.292Z,100.00
2023-04-15T23:29:21.504Z,100.00
2023-04-15T23:31:49.882Z,100.00
2023-04-15T23:34:19.167Z,100.00
2023-04-15T23:36:47.866Z,100.00
2023-04-15T23:39:16.660Z,100.00
2023-04-15T23:41:44.822Z,100.00
2023-04-15T23:44:13.205Z,100.00
2023-04-15T23:46:41.656Z,100.00
2023-04-15T23:49:10.267Z,100.00
2023-04-15T23:51:39.432Z,100.00
2023-04-15T23:54:08.161Z,100.00
2023-04-15T23:56:37.053Z,100.00
2023-04-15T23:59:05.938Z,100.00
